sensor_id;sensor_type;location;lat;lon;timestamp;temperature;humidity
4934;DHT22;2482;49.154;8.254;2022-08-11T00:00:09;19.00;90.00
4934;DHT22;2482;49.154;8.254;2022-08-11T00:05:12;18.80;90.50
4934;DHT22;2482;49.154;8.254;2022-08-11T00:07:52;18.80;90.40
4934;DHT22;2482;49.154;8.254;2022-08-11T00:10:24;18.80;90.30
4934;DHT22;2482;49.154;8.254;2022-08-11T00:12:56;18.80;90.50
4934;DHT22;2482;49.154;8.254;2022-08-11T00:15:27;18.80;90.40
4934;DHT22;2482;49.154;8.254;2022-08-11T00:18:03;19.00;90.40
4934;DHT22;2482;49.154;8.254;2022-08-11T00:20:34;18.90;90.40
4934;DHT22;2482;49.154;8.254;2022-08-11T00:23:08;18.80;90.60
4934;DHT22;2482;49.154;8.254;2022-08-11T00:25:42;18.70;90.90
4934;DHT22;2482;49.154;8.254;2022-08-11T00:30:56;18.70;90.90
4934;DHT22;2482;49.154;8.254;2022-08-11T00:33:42;18.60;91.30
4934;DHT22;2482;49.154;8.254;2022-08-11T00:36:14;18.30;92.00
4934;DHT22;2482;49.154;8.254;2022-08-11T00:38:51;18.20;92.10
4934;DHT22;2482;49.154;8.254;2022-08-11T00:53:06;17.90;92.80
4934;DHT22;2482;49.154;8.254;2022-08-11T01:02:17;17.50;93.80
4934;DHT22;2482;49.154;8.254;2022-08-11T01:11:33;17.60;93.80
4934;DHT22;2482;49.154;8.254;2022-08-11T01:27:14;17.10;94.70
4934;DHT22;2482;49.154;8.254;2022-08-11T01:48:38;16.90;95.40
4934;DHT22;2482;49.154;8.254;2022-08-11T02:01:15;17.30;95.70
4934;DHT22;2482;49.154;8.254;2022-08-11T02:09:56;16.60;97.10
4934;DHT22;2482;49.154;8.254;2022-08-11T02:13:21;16.40;97.80
4934;DHT22;2482;49.154;8.254;2022-08-11T02:16:15;16.30;98.80
4934;DHT22;2482;49.154;8.254;2022-08-11T02:18:51;16.30;99.30
4934;DHT22;2482;49.154;8.254;2022-08-11T02:22:04;16.20;99.90
4934;DHT22;2482;49.154;8.254;2022-08-11T02:25:10;16.00;99.90
4934;DHT22;2482;49.154;8.254;2022-08-11T02:27:52;16.10;99.90
4934;DHT22;2482;49.154;8.254;2022-08-11T02:30:38;16.20;99.90
4934;DHT22;2482;49.154;8.254;2022-08-11T02:33:21;16.40;99.90
4934;DHT22;2482;49.154;8.254;2022-08-11T02:36:00;16.60;99.90
4934;DHT22;2482;49.154;8.254;2022-08-11T02:38:46;16.80;99.90
4934;DHT22;2482;49.154;8.254;2022-08-11T02:41:25;17.20;99.00
4934;DHT22;2482;49.154;8.254;2022-08-11T02:47:12;17.60;98.00
4934;DHT22;2482;49.154;8.254;2022-08-11T02:50:11;17.60;97.90
4934;DHT22;2482;49.154;8.254;2022-08-11T02:52:53;17.40;98.90
4934;DHT22;2482;49.154;8.254;2022-08-11T02:55:46;17.30;98.60
4934;DHT22;2482;49.154;8.254;2022-08-11T02:59:00;17.50;98.30
4934;DHT22;2482;49.154;8.254;2022-08-11T03:01:58;17.50;98.60
4934;DHT22;2482;49.154;8.254;2022-08-11T03:14:05;16.40;99.90
4934;DHT22;2482;49.154;8.254;2022-08-11T03:17:27;16.50;99.90
4934;DHT22;2482;49.154;8.254;2022-08-11T03:20:50;16.50;99.90
4934;DHT22;2482;49.154;8.254;2022-08-11T03:26:32;16.60;99.90
4934;DHT22;2482;49.154;8.254;2022-08-11T03:29:31;16.60;99.90
4934;DHT22;2482;49.154;8.254;2022-08-11T03:32:23;16.60;99.90
4934;DHT22;2482;49.154;8.254;2022-08-11T03:34:57;16.60;99.90
4934;DHT22;2482;49.154;8.254;2022-08-11T03:40:47;16.50;99.90
4934;DHT22;2482;49.154;8.254;2022-08-11T03:44:05;16.50;99.90
4934;DHT22;2482;49.154;8.254;2022-08-11T03:47:17;16.40;99.90
4934;DHT22;2482;49.154;8.254;2022-08-11T03:50:53;16.30;99.90
4934;DHT22;2482;49.154;8.254;2022-08-11T03:57:03;16.00;99.90
4934;DHT22;2482;49.154;8.254;2022-08-11T04:02:33;15.70;99.90
4934;DHT22;2482;49.154;8.254;2022-08-11T04:05:26;15.90;99.90
4934;DHT22;2482;49.154;8.254;2022-08-11T04:08:28;16.00;99.90
4934;DHT22;2482;49.154;8.254;2022-08-11T04:20:40;16.10;99.90
4934;DHT22;2482;49.154;8.254;2022-08-11T04:35:56;16.00;99.90
4934;DHT22;2482;49.154;8.254;2022-08-11T04:38:51;15.90;99.90
4934;DHT22;2482;49.154;8.254;2022-08-11T04:41:55;16.00;99.90
4934;DHT22;2482;49.154;8.254;2022-08-11T04:58:16;16.50;99.90
4934;DHT22;2482;49.154;8.254;2022-08-11T05:01:34;16.60;99.90
4934;DHT22;2482;49.154;8.254;2022-08-11T05:11:34;17.60;99.90
4934;DHT22;2482;49.154;8.254;2022-08-11T05:14:51;17.80;99.90
4934;DHT22;2482;49.154;8.254;2022-08-11T05:18:06;17.60;99.90
4934;DHT22;2482;49.154;8.254;2022-08-11T05:20:55;17.70;99.90
4934;DHT22;2482;49.154;8.254;2022-08-11T05:23:46;17.90;99.90
4934;DHT22;2482;49.154;8.254;2022-08-11T05:26:46;18.00;99.90
4934;DHT22;2482;49.154;8.254;2022-08-11T05:29:45;18.10;99.90
4934;DHT22;2482;49.154;8.254;2022-08-11T05:32:40;18.10;99.90
4934;DHT22;2482;49.154;8.254;2022-08-11T05:35:43;18.20;99.90
4934;DHT22;2482;49.154;8.254;2022-08-11T05:38:34;18.20;99.90
4934;DHT22;2482;49.154;8.254;2022-08-11T05:41:23;18.50;99.90
4934;DHT22;2482;49.154;8.254;2022-08-11T05:44:18;18.70;99.90
4934;DHT22;2482;49.154;8.254;2022-08-11T05:47:05;18.90;99.90
4934;DHT22;2482;49.154;8.254;2022-08-11T05:49:52;19.10;99.90
4934;DHT22;2482;49.154;8.254;2022-08-11T05:52:44;19.10;99.90
4934;DHT22;2482;49.154;8.254;2022-08-11T05:55:39;19.30;99.90
4934;DHT22;2482;49.154;8.254;2022-08-11T05:58:38;19.40;99.90
4934;DHT22;2482;49.154;8.254;2022-08-11T06:01:10;19.60;99.90
4934;DHT22;2482;49.154;8.254;2022-08-11T06:03:43;19.60;99.90
4934;DHT22;2482;49.154;8.254;2022-08-11T06:06:30;19.80;99.90
4934;DHT22;2482;49.154;8.254;2022-08-11T06:08:58;19.90;99.90
4934;DHT22;2482;49.154;8.254;2022-08-11T06:11:26;20.10;99.90
4934;DHT22;2482;49.154;8.254;2022-08-11T06:14:11;20.20;99.90
4934;DHT22;2482;49.154;8.254;2022-08-11T06:16:40;20.20;99.90
4934;DHT22;2482;49.154;8.254;2022-08-11T06:19:09;20.30;99.90
4934;DHT22;2482;49.154;8.254;2022-08-11T06:21:36;20.30;99.90
4934;DHT22;2482;49.154;8.254;2022-08-11T06:24:14;20.50;99.90
4934;DHT22;2482;49.154;8.254;2022-08-11T06:26:48;20.60;99.90
4934;DHT22;2482;49.154;8.254;2022-08-11T06:29:43;20.70;99.90
4934;DHT22;2482;49.154;8.254;2022-08-11T06:32:26;20.80;99.90
4934;DHT22;2482;49.154;8.254;2022-08-11T06:35:06;20.90;99.90
4934;DHT22;2482;49.154;8.254;2022-08-11T06:43:46;21.40;99.90
4934;DHT22;2482;49.154;8.254;2022-08-11T06:46:30;21.50;99.90
4934;DHT22;2482;49.154;8.254;2022-08-11T06:49:02;21.70;99.20
4934;DHT22;2482;49.154;8.254;2022-08-11T06:51:30;21.80;99.10
4934;DHT22;2482;49.154;8.254;2022-08-11T06:54:01;21.60;99.00
4934;DHT22;2482;49.154;8.254;2022-08-11T06:56:35;21.60;99.50
4934;DHT22;2482;49.154;8.254;2022-08-11T06:59:44;21.90;98.80
4934;DHT22;2482;49.154;8.254;2022-08-11T07:05:53;22.10;98.30
4934;DHT22;2482;49.154;8.254;2022-08-11T07:08:58;22.20;98.80
4934;DHT22;2482;49.154;8.254;2022-08-11T07:12:28;22.30;98.60
4934;DHT22;2482;49.154;8.254;2022-08-11T07:15:30;22.40;98.20
4934;DHT22;2482;49.154;8.254;2022-08-11T07:18:31;22.60;97.90
4934;DHT22;2482;49.154;8.254;2022-08-11T07:21:33;22.70;97.10
4934;DHT22;2482;49.154;8.254;2022-08-11T07:24:53;23.00;98.00
4934;DHT22;2482;49.154;8.254;2022-08-11T07:27:45;23.30;96.60
4934;DHT22;2482;49.154;8.254;2022-08-11T07:30:36;23.50;96.70
4934;DHT22;2482;49.154;8.254;2022-08-11T07:33:05;23.50;96.40
4934;DHT22;2482;49.154;8.254;2022-08-11T07:35:37;23.70;96.20
4934;DHT22;2482;49.154;8.254;2022-08-11T07:38:23;23.90;96.70
4934;DHT22;2482;49.154;8.254;2022-08-11T07:41:15;23.70;96.10
4934;DHT22;2482;49.154;8.254;2022-08-11T07:43:47;23.80;95.60
4934;DHT22;2482;49.154;8.254;2022-08-11T07:46:17;24.00;96.90
4934;DHT22;2482;49.154;8.254;2022-08-11T07:49:06;24.00;95.50
4934;DHT22;2482;49.154;8.254;2022-08-11T07:51:53;23.80;95.40
4934;DHT22;2482;49.154;8.254;2022-08-11T07:54:40;24.00;95.60
4934;DHT22;2482;49.154;8.254;2022-08-11T07:57:11;24.40;94.70
4934;DHT22;2482;49.154;8.254;2022-08-11T08:00:18;24.60;94.40
4934;DHT22;2482;49.154;8.254;2022-08-11T08:03:06;24.80;93.80
4934;DHT22;2482;49.154;8.254;2022-08-11T08:05:52;24.60;94.80
4934;DHT22;2482;49.154;8.254;2022-08-11T08:08:58;24.60;93.80
4934;DHT22;2482;49.154;8.254;2022-08-11T08:11:45;24.80;94.10
4934;DHT22;2482;49.154;8.254;2022-08-11T08:14:32;24.80;94.40
4934;DHT22;2482;49.154;8.254;2022-08-11T08:17:20;24.70;94.10
4934;DHT22;2482;49.154;8.254;2022-08-11T08:20:10;24.90;93.80
4934;DHT22;2482;49.154;8.254;2022-08-11T08:22:39;25.20;93.40
4934;DHT22;2482;49.154;8.254;2022-08-11T08:25:14;25.30;93.00
4934;DHT22;2482;49.154;8.254;2022-08-11T08:27:43;25.30;93.90
4934;DHT22;2482;49.154;8.254;2022-08-11T08:30:12;25.40;93.50
4934;DHT22;2482;49.154;8.254;2022-08-11T08:32:58;25.30;92.60
4934;DHT22;2482;49.154;8.254;2022-08-11T08:35:26;25.60;92.40
4934;DHT22;2482;49.154;8.254;2022-08-11T08:37:58;25.50;92.40
4934;DHT22;2482;49.154;8.254;2022-08-11T08:40:26;25.60;92.80
4934;DHT22;2482;49.154;8.254;2022-08-11T08:42:58;25.70;92.40
4934;DHT22;2482;49.154;8.254;2022-08-11T08:45:33;25.80;92.80
4934;DHT22;2482;49.154;8.254;2022-08-11T08:48:07;26.10;92.00
4934;DHT22;2482;49.154;8.254;2022-08-11T08:50:51;26.00;92.00
4934;DHT22;2482;49.154;8.254;2022-08-11T08:53:47;25.90;91.40
4934;DHT22;2482;49.154;8.254;2022-08-11T08:56:26;25.90;92.20
4934;DHT22;2482;49.154;8.254;2022-08-11T08:58:57;26.30;91.00
4934;DHT22;2482;49.154;8.254;2022-08-11T09:01:29;26.50;90.60
4934;DHT22;2482;49.154;8.254;2022-08-11T09:04:17;26.80;90.80
4934;DHT22;2482;49.154;8.254;2022-08-11T09:06:47;26.90;90.30
4934;DHT22;2482;49.154;8.254;2022-08-11T09:09:19;26.90;90.60
4934;DHT22;2482;49.154;8.254;2022-08-11T09:11:48;26.70;90.30
4934;DHT22;2482;49.154;8.254;2022-08-11T09:17:13;26.70;90.60
4934;DHT22;2482;49.154;8.254;2022-08-11T09:19:40;26.60;90.30
4934;DHT22;2482;49.154;8.254;2022-08-11T09:22:08;26.70;90.70
4934;DHT22;2482;49.154;8.254;2022-08-11T09:24:54;26.80;89.70
4934;DHT22;2482;49.154;8.254;2022-08-11T09:27:41;26.90;91.10
4934;DHT22;2482;49.154;8.254;2022-08-11T09:30:18;27.00;89.20
4934;DHT22;2482;49.154;8.254;2022-08-11T09:32:46;27.20;90.90
4934;DHT22;2482;49.154;8.254;2022-08-11T09:35:13;27.50;90.40
4934;DHT22;2482;49.154;8.254;2022-08-11T09:37:44;27.30;89.90
4934;DHT22;2482;49.154;8.254;2022-08-11T09:40:30;27.40;89.80
4934;DHT22;2482;49.154;8.254;2022-08-11T09:43:02;27.90;88.80
4934;DHT22;2482;49.154;8.254;2022-08-11T09:45:51;28.20;87.20
4934;DHT22;2482;49.154;8.254;2022-08-11T09:48:21;28.60;85.30
4934;DHT22;2482;49.154;8.254;2022-08-11T09:50:52;28.70;85.10
4934;DHT22;2482;49.154;8.254;2022-08-11T09:53:21;28.90;83.40
4934;DHT22;2482;49.154;8.254;2022-08-11T09:56:18;28.80;83.00
4934;DHT22;2482;49.154;8.254;2022-08-11T09:59:05;29.20;83.30
4934;DHT22;2482;49.154;8.254;2022-08-11T10:01:42;28.90;81.60
4934;DHT22;2482;49.154;8.254;2022-08-11T10:04:19;28.70;81.70
4934;DHT22;2482;49.154;8.254;2022-08-11T10:06:50;28.60;80.80
4934;DHT22;2482;49.154;8.254;2022-08-11T10:09:51;28.50;82.30
4934;DHT22;2482;49.154;8.254;2022-08-11T10:12:25;28.80;81.50
4934;DHT22;2482;49.154;8.254;2022-08-11T10:14:57;29.20;82.50
4934;DHT22;2482;49.154;8.254;2022-08-11T10:17:49;29.40;82.50
4934;DHT22;2482;49.154;8.254;2022-08-11T10:20:39;29.40;81.00
4934;DHT22;2482;49.154;8.254;2022-08-11T10:23:10;29.60;78.50
4934;DHT22;2482;49.154;8.254;2022-08-11T10:25:57;29.50;79.40
4934;DHT22;2482;49.154;8.254;2022-08-11T10:28:44;29.00;76.50
4934;DHT22;2482;49.154;8.254;2022-08-11T10:31:31;28.90;76.70
4934;DHT22;2482;49.154;8.254;2022-08-11T10:34:33;29.40;76.90
4934;DHT22;2482;49.154;8.254;2022-08-11T10:37:03;29.30;72.50
4934;DHT22;2482;49.154;8.254;2022-08-11T10:39:31;29.20;74.30
4934;DHT22;2482;49.154;8.254;2022-08-11T10:41:58;29.40;72.40
4934;DHT22;2482;49.154;8.254;2022-08-11T10:45:06;29.60;73.20
4934;DHT22;2482;49.154;8.254;2022-08-11T10:47:55;29.10;73.30
4934;DHT22;2482;49.154;8.254;2022-08-11T10:50:23;29.00;73.60
4934;DHT22;2482;49.154;8.254;2022-08-11T10:53:11;28.90;73.30
4934;DHT22;2482;49.154;8.254;2022-08-11T10:55:59;29.00;73.60
4934;DHT22;2482;49.154;8.254;2022-08-11T10:58:45;29.40;74.50
4934;DHT22;2482;49.154;8.254;2022-08-11T11:01:32;29.20;74.00
4934;DHT22;2482;49.154;8.254;2022-08-11T11:04:15;29.70;70.70
4934;DHT22;2482;49.154;8.254;2022-08-11T11:09:33;29.90;72.40
4934;DHT22;2482;49.154;8.254;2022-08-11T11:12:30;29.90;71.40
4934;DHT22;2482;49.154;8.254;2022-08-11T11:15:20;29.80;70.50
4934;DHT22;2482;49.154;8.254;2022-08-11T11:18:26;29.70;71.80
4934;DHT22;2482;49.154;8.254;2022-08-11T11:21:15;30.20;70.20
4934;DHT22;2482;49.154;8.254;2022-08-11T11:24:29;30.50;70.90
4934;DHT22;2482;49.154;8.254;2022-08-11T11:27:19;30.00;71.30
4934;DHT22;2482;49.154;8.254;2022-08-11T11:35:52;30.20;71.60
4934;DHT22;2482;49.154;8.254;2022-08-11T11:38:23;30.10;67.50
4934;DHT22;2482;49.154;8.254;2022-08-11T11:40:50;29.60;66.90
4934;DHT22;2482;49.154;8.254;2022-08-11T11:43:39;29.50;68.10
4934;DHT22;2482;49.154;8.254;2022-08-11T11:46:07;30.00;68.50
4934;DHT22;2482;49.154;8.254;2022-08-11T11:48:36;30.10;67.00
4934;DHT22;2482;49.154;8.254;2022-08-11T11:51:04;29.90;68.70
4934;DHT22;2482;49.154;8.254;2022-08-11T11:53:31;29.70;66.90
4934;DHT22;2482;49.154;8.254;2022-08-11T11:55:59;29.80;63.90
4934;DHT22;2482;49.154;8.254;2022-08-11T11:58:27;29.90;65.30
4934;DHT22;2482;49.154;8.254;2022-08-11T12:01:13;30.10;64.50
4934;DHT22;2482;49.154;8.254;2022-08-11T12:03:48;30.40;62.90
4934;DHT22;2482;49.154;8.254;2022-08-11T12:06:20;30.40;63.50
4934;DHT22;2482;49.154;8.254;2022-08-11T12:08:51;30.50;63.20
4934;DHT22;2482;49.154;8.254;2022-08-11T12:11:23;30.20;62.90
4934;DHT22;2482;49.154;8.254;2022-08-11T12:14:10;29.90;63.50
4934;DHT22;2482;49.154;8.254;2022-08-11T12:16:40;29.80;62.20
4934;DHT22;2482;49.154;8.254;2022-08-11T12:19:22;30.00;62.90
4934;DHT22;2482;49.154;8.254;2022-08-11T12:21:55;30.10;61.50
4934;DHT22;2482;49.154;8.254;2022-08-11T12:24:41;30.00;62.20
4934;DHT22;2482;49.154;8.254;2022-08-11T12:27:29;30.30;61.60
4934;DHT22;2482;49.154;8.254;2022-08-11T12:30:00;30.30;59.80
4934;DHT22;2482;49.154;8.254;2022-08-11T12:32:37;30.40;62.00
4934;DHT22;2482;49.154;8.254;2022-08-11T12:35:06;30.80;61.00
4934;DHT22;2482;49.154;8.254;2022-08-11T12:37:43;31.00;63.20
4934;DHT22;2482;49.154;8.254;2022-08-11T12:40:18;31.20;62.80
4934;DHT22;2482;49.154;8.254;2022-08-11T12:43:29;30.90;61.20
4934;DHT22;2482;49.154;8.254;2022-08-11T12:46:28;30.50;59.60
4934;DHT22;2482;49.154;8.254;2022-08-11T12:49:04;30.70;59.40
4934;DHT22;2482;49.154;8.254;2022-08-11T12:51:55;30.90;60.20
4934;DHT22;2482;49.154;8.254;2022-08-11T12:57:19;31.20;58.20
4934;DHT22;2482;49.154;8.254;2022-08-11T13:00:08;31.00;57.70
4934;DHT22;2482;49.154;8.254;2022-08-11T13:02:56;30.90;57.50
4934;DHT22;2482;49.154;8.254;2022-08-11T13:05:44;30.70;58.30
4934;DHT22;2482;49.154;8.254;2022-08-11T13:08:13;30.70;57.40
4934;DHT22;2482;49.154;8.254;2022-08-11T13:10:42;30.70;57.70
4934;DHT22;2482;49.154;8.254;2022-08-11T13:13:29;30.90;59.60
4934;DHT22;2482;49.154;8.254;2022-08-11T13:16:25;30.90;59.10
4934;DHT22;2482;49.154;8.254;2022-08-11T13:18:57;30.90;59.20
4934;DHT22;2482;49.154;8.254;2022-08-11T13:21:27;30.80;59.40
4934;DHT22;2482;49.154;8.254;2022-08-11T13:23:56;30.50;59.40
4934;DHT22;2482;49.154;8.254;2022-08-11T13:26:33;30.70;57.50
4934;DHT22;2482;49.154;8.254;2022-08-11T13:29:20;30.70;58.20
4934;DHT22;2482;49.154;8.254;2022-08-11T13:31:50;30.70;60.60
4934;DHT22;2482;49.154;8.254;2022-08-11T13:34:19;30.90;57.80
4934;DHT22;2482;49.154;8.254;2022-08-11T13:36:52;30.90;57.70
4934;DHT22;2482;49.154;8.254;2022-08-11T13:39:25;31.00;56.70
4934;DHT22;2482;49.154;8.254;2022-08-11T13:41:55;30.90;57.10
4934;DHT22;2482;49.154;8.254;2022-08-11T13:44:25;30.90;57.10
4934;DHT22;2482;49.154;8.254;2022-08-11T13:47:02;31.00;58.10
4934;DHT22;2482;49.154;8.254;2022-08-11T13:49:35;31.10;56.60
4934;DHT22;2482;49.154;8.254;2022-08-11T13:52:09;31.20;57.40
4934;DHT22;2482;49.154;8.254;2022-08-11T13:54:40;31.40;57.10
4934;DHT22;2482;49.154;8.254;2022-08-11T13:57:09;31.60;57.50
4934;DHT22;2482;49.154;8.254;2022-08-11T13:59:58;31.60;56.60
4934;DHT22;2482;49.154;8.254;2022-08-11T14:02:50;31.50;56.40
4934;DHT22;2482;49.154;8.254;2022-08-11T14:05:26;31.30;56.30
4934;DHT22;2482;49.154;8.254;2022-08-11T14:08:00;30.90;58.10
4934;DHT22;2482;49.154;8.254;2022-08-11T14:10:31;30.70;58.40
4934;DHT22;2482;49.154;8.254;2022-08-11T14:13:03;30.90;58.70
4934;DHT22;2482;49.154;8.254;2022-08-11T14:15:53;31.20;57.20
4934;DHT22;2482;49.154;8.254;2022-08-11T14:18:28;31.10;56.50
4934;DHT22;2482;49.154;8.254;2022-08-11T14:20:59;31.10;56.60
4934;DHT22;2482;49.154;8.254;2022-08-11T14:23:52;31.20;58.00
4934;DHT22;2482;49.154;8.254;2022-08-11T14:26:28;31.40;58.30
4934;DHT22;2482;49.154;8.254;2022-08-11T14:29:15;31.60;57.30
4934;DHT22;2482;49.154;8.254;2022-08-11T14:31:55;31.40;57.10
4934;DHT22;2482;49.154;8.254;2022-08-11T14:34:28;30.90;56.80
4934;DHT22;2482;49.154;8.254;2022-08-11T14:36:58;31.00;57.30
4934;DHT22;2482;49.154;8.254;2022-08-11T14:39:31;31.10;57.10
4934;DHT22;2482;49.154;8.254;2022-08-11T14:42:04;31.20;58.00
4934;DHT22;2482;49.154;8.254;2022-08-11T14:44:56;31.20;56.80
4934;DHT22;2482;49.154;8.254;2022-08-11T14:47:46;31.30;57.60
4934;DHT22;2482;49.154;8.254;2022-08-11T14:50:21;31.40;57.60
4934;DHT22;2482;49.154;8.254;2022-08-11T14:53:02;31.60;56.90
4934;DHT22;2482;49.154;8.254;2022-08-11T14:55:41;31.70;56.40
4934;DHT22;2482;49.154;8.254;2022-08-11T14:58:29;31.60;58.00
4934;DHT22;2482;49.154;8.254;2022-08-11T15:01:00;31.30;57.30
4934;DHT22;2482;49.154;8.254;2022-08-11T15:03:31;31.30;57.50
4934;DHT22;2482;49.154;8.254;2022-08-11T15:06:02;31.10;57.10
4934;DHT22;2482;49.154;8.254;2022-08-11T15:08:33;30.60;57.80
4934;DHT22;2482;49.154;8.254;2022-08-11T15:11:29;30.80;59.30
4934;DHT22;2482;49.154;8.254;2022-08-11T15:14:16;31.10;59.20
4934;DHT22;2482;49.154;8.254;2022-08-11T15:17:06;31.50;57.00
4934;DHT22;2482;49.154;8.254;2022-08-11T15:19:34;31.40;56.90
4934;DHT22;2482;49.154;8.254;2022-08-11T15:22:08;31.60;57.30
4934;DHT22;2482;49.154;8.254;2022-08-11T15:24:58;31.60;56.50
4934;DHT22;2482;49.154;8.254;2022-08-11T15:27:27;31.30;56.80
4934;DHT22;2482;49.154;8.254;2022-08-11T15:30:14;31.00;56.40
4934;DHT22;2482;49.154;8.254;2022-08-11T15:33:08;30.70;57.70
4934;DHT22;2482;49.154;8.254;2022-08-11T15:35:56;30.80;57.30
4934;DHT22;2482;49.154;8.254;2022-08-11T15:38:46;31.10;56.10
4934;DHT22;2482;49.154;8.254;2022-08-11T15:41:31;31.30;56.80
4934;DHT22;2482;49.154;8.254;2022-08-11T15:44:28;31.20;56.30
4934;DHT22;2482;49.154;8.254;2022-08-11T15:47:45;30.70;57.30
4934;DHT22;2482;49.154;8.254;2022-08-11T15:50:17;30.60;57.00
4934;DHT22;2482;49.154;8.254;2022-08-11T15:52:51;30.70;57.70
4934;DHT22;2482;49.154;8.254;2022-08-11T15:55:20;30.60;58.10
4934;DHT22;2482;49.154;8.254;2022-08-11T15:57:51;30.50;57.20
4934;DHT22;2482;49.154;8.254;2022-08-11T16:00:39;30.40;56.70
4934;DHT22;2482;49.154;8.254;2022-08-11T16:04:01;30.40;57.10
4934;DHT22;2482;49.154;8.254;2022-08-11T16:09:37;30.90;56.60
4934;DHT22;2482;49.154;8.254;2022-08-11T16:12:28;31.00;56.70
4934;DHT22;2482;49.154;8.254;2022-08-11T16:15:01;31.10;57.30
4934;DHT22;2482;49.154;8.254;2022-08-11T16:17:56;31.00;57.00
4934;DHT22;2482;49.154;8.254;2022-08-11T16:20:27;30.90;56.90
4934;DHT22;2482;49.154;8.254;2022-08-11T16:22:59;30.70;57.90
4934;DHT22;2482;49.154;8.254;2022-08-11T16:25:33;30.50;57.60
4934;DHT22;2482;49.154;8.254;2022-08-11T16:28:22;30.50;57.40
4934;DHT22;2482;49.154;8.254;2022-08-11T16:30:50;30.30;57.10
4934;DHT22;2482;49.154;8.254;2022-08-11T16:33:20;30.20;56.90
4934;DHT22;2482;49.154;8.254;2022-08-11T16:36:10;30.30;58.20
4934;DHT22;2482;49.154;8.254;2022-08-11T16:38:57;30.40;57.70
4934;DHT22;2482;49.154;8.254;2022-08-11T16:41:29;30.40;58.30
4934;DHT22;2482;49.154;8.254;2022-08-11T16:44:17;30.40;58.00
4934;DHT22;2482;49.154;8.254;2022-08-11T16:47:13;30.40;56.70
4934;DHT22;2482;49.154;8.254;2022-08-11T16:49:48;30.40;57.40
4934;DHT22;2482;49.154;8.254;2022-08-11T16:52:19;30.30;58.20
4934;DHT22;2482;49.154;8.254;2022-08-11T16:54:47;30.40;57.40
4934;DHT22;2482;49.154;8.254;2022-08-11T16:57:25;30.50;56.30
4934;DHT22;2482;49.154;8.254;2022-08-11T17:00:15;30.40;57.80
4934;DHT22;2482;49.154;8.254;2022-08-11T17:02:49;30.20;58.70
4934;DHT22;2482;49.154;8.254;2022-08-11T17:05:43;30.20;57.40
4934;DHT22;2482;49.154;8.254;2022-08-11T17:08:36;29.90;57.30
4934;DHT22;2482;49.154;8.254;2022-08-11T17:11:27;29.90;57.10
4934;DHT22;2482;49.154;8.254;2022-08-11T17:14:16;29.90;56.90
4934;DHT22;2482;49.154;8.254;2022-08-11T17:17:17;29.90;58.00
4934;DHT22;2482;49.154;8.254;2022-08-11T17:19:49;29.70;58.70
4934;DHT22;2482;49.154;8.254;2022-08-11T17:22:40;29.60;58.80
4934;DHT22;2482;49.154;8.254;2022-08-11T17:25:27;29.70;59.10
4934;DHT22;2482;49.154;8.254;2022-08-11T17:28:18;29.50;59.20
4934;DHT22;2482;49.154;8.254;2022-08-11T17:30:51;29.40;59.90
4934;DHT22;2482;49.154;8.254;2022-08-11T17:33:49;29.40;59.70
4934;DHT22;2482;49.154;8.254;2022-08-11T17:36:36;29.20;59.80
4934;DHT22;2482;49.154;8.254;2022-08-11T17:39:10;29.20;59.50
4934;DHT22;2482;49.154;8.254;2022-08-11T17:41:39;29.20;58.20
4934;DHT22;2482;49.154;8.254;2022-08-11T17:44:27;29.20;58.80
4934;DHT22;2482;49.154;8.254;2022-08-11T17:47:15;29.40;59.00
4934;DHT22;2482;49.154;8.254;2022-08-11T17:50:03;29.20;60.40
4934;DHT22;2482;49.154;8.254;2022-08-11T17:52:44;29.10;60.60
4934;DHT22;2482;49.154;8.254;2022-08-11T17:55:33;29.00;61.30
4934;DHT22;2482;49.154;8.254;2022-08-11T17:58:20;28.80;61.00
4934;DHT22;2482;49.154;8.254;2022-08-11T18:01:07;28.50;61.20
4934;DHT22;2482;49.154;8.254;2022-08-11T18:03:38;28.30;61.80
4934;DHT22;2482;49.154;8.254;2022-08-11T18:06:09;28.10;62.50
4934;DHT22;2482;49.154;8.254;2022-08-11T18:08:43;27.90;62.40
4934;DHT22;2482;49.154;8.254;2022-08-11T18:11:31;27.80;62.90
4934;DHT22;2482;49.154;8.254;2022-08-11T18:14:39;27.60;63.10
4934;DHT22;2482;49.154;8.254;2022-08-11T18:17:27;27.60;63.10
4934;DHT22;2482;49.154;8.254;2022-08-11T18:20:13;27.40;63.10
4934;DHT22;2482;49.154;8.254;2022-08-11T18:23:03;27.30;63.60
4934;DHT22;2482;49.154;8.254;2022-08-11T18:26:11;27.30;63.00
4934;DHT22;2482;49.154;8.254;2022-08-11T18:28:58;27.20;63.50
4934;DHT22;2482;49.154;8.254;2022-08-11T18:31:47;27.10;63.40
4934;DHT22;2482;49.154;8.254;2022-08-11T18:34:38;26.90;63.70
4934;DHT22;2482;49.154;8.254;2022-08-11T18:37:28;26.80;63.90
4934;DHT22;2482;49.154;8.254;2022-08-11T18:40:23;26.70;63.40
4934;DHT22;2482;49.154;8.254;2022-08-11T18:43:11;26.60;63.80
4934;DHT22;2482;49.154;8.254;2022-08-11T18:46:03;26.40;64.10
4934;DHT22;2482;49.154;8.254;2022-08-11T18:49:18;26.30;64.60
4934;DHT22;2482;49.154;8.254;2022-08-11T18:52:27;26.10;64.30
4934;DHT22;2482;49.154;8.254;2022-08-11T18:55:16;26.10;63.80
4934;DHT22;2482;49.154;8.254;2022-08-11T18:58:07;26.10;64.00
4934;DHT22;2482;49.154;8.254;2022-08-11T19:00:57;26.10;63.20
4934;DHT22;2482;49.154;8.254;2022-08-11T19:03:46;25.90;63.20
4934;DHT22;2482;49.154;8.254;2022-08-11T19:06:40;25.60;64.40
4934;DHT22;2482;49.154;8.254;2022-08-11T19:09:27;25.50;65.20
4934;DHT22;2482;49.154;8.254;2022-08-11T19:12:14;25.30;64.90
4934;DHT22;2482;49.154;8.254;2022-08-11T19:15:04;25.30;64.60
4934;DHT22;2482;49.154;8.254;2022-08-11T19:17:51;25.50;64.60
4934;DHT22;2482;49.154;8.254;2022-08-11T19:20:41;25.40;64.60
4934;DHT22;2482;49.154;8.254;2022-08-11T19:23:35;25.20;65.60
4934;DHT22;2482;49.154;8.254;2022-08-11T19:26:25;25.20;65.10
4934;DHT22;2482;49.154;8.254;2022-08-11T19:29:17;25.20;66.00
4934;DHT22;2482;49.154;8.254;2022-08-11T19:32:27;25.00;65.90
4934;DHT22;2482;49.154;8.254;2022-08-11T19:35:13;25.00;66.10
4934;DHT22;2482;49.154;8.254;2022-08-11T19:37:59;24.80;67.20
4934;DHT22;2482;49.154;8.254;2022-08-11T19:40:47;24.80;67.40
4934;DHT22;2482;49.154;8.254;2022-08-11T19:43:34;24.70;67.90
4934;DHT22;2482;49.154;8.254;2022-08-11T19:46:23;24.60;68.40
4934;DHT22;2482;49.154;8.254;2022-08-11T19:49:10;24.60;68.80
4934;DHT22;2482;49.154;8.254;2022-08-11T19:51:57;24.50;69.30
4934;DHT22;2482;49.154;8.254;2022-08-11T19:54:43;24.40;70.00
4934;DHT22;2482;49.154;8.254;2022-08-11T19:57:31;24.20;70.60
4934;DHT22;2482;49.154;8.254;2022-08-11T20:00:20;24.10;70.10
4934;DHT22;2482;49.154;8.254;2022-08-11T20:03:08;24.10;70.00
4934;DHT22;2482;49.154;8.254;2022-08-11T20:05:58;24.00;70.30
4934;DHT22;2482;49.154;8.254;2022-08-11T20:08:48;24.00;69.80
4934;DHT22;2482;49.154;8.254;2022-08-11T20:11:37;24.20;69.20
4934;DHT22;2482;49.154;8.254;2022-08-11T20:14:27;24.00;69.20
4934;DHT22;2482;49.154;8.254;2022-08-11T20:17:15;24.00;69.60
4934;DHT22;2482;49.154;8.254;2022-08-11T20:20:05;23.80;71.40
4934;DHT22;2482;49.154;8.254;2022-08-11T20:22:53;23.70;72.50
4934;DHT22;2482;49.154;8.254;2022-08-11T20:25:40;23.70;72.80
4934;DHT22;2482;49.154;8.254;2022-08-11T20:28:47;23.70;72.80
4934;DHT22;2482;49.154;8.254;2022-08-11T20:31:35;23.60;70.70
4934;DHT22;2482;49.154;8.254;2022-08-11T20:34:22;23.50;70.80
4934;DHT22;2482;49.154;8.254;2022-08-11T20:37:09;23.70;70.30
4934;DHT22;2482;49.154;8.254;2022-08-11T20:39:55;23.50;70.50
4934;DHT22;2482;49.154;8.254;2022-08-11T20:42:49;23.70;70.60